Time;durP1;ratioP1;P1;durP2;ratioP2;P2;SDS_P1;SDS_P2;PMS_P1;PMS_P2;Temp;Humidity;BMP_temperature;BMP_pressure;BME280_temperature;BME280_humidity;BME280_pressure;Samples;Min_cycle;Max_cycle;Signal;HPM_P1;HPM_P2
2023/08/11 00:00:01;;;;;;;2.97;2.75;;;22.20;55.10;;;;;;4957549;28;20206;-77
2023/08/11 00:02:38;;;;;;;2.83;2.63;;;22.20;55.20;;;;;;4959073;29;20206;-77
2023/08/11 00:05:05;;;;;;;2.70;2.50;;;22.20;55.20;;;;;;4942512;29;20281;-77
2023/08/11 00:07:32;;;;;;;3.00;2.50;;;22.20;55.20;;;;;;4941568;29;20198;-77
2023/08/11 00:09:59;;;;;;;3.10;2.47;;;22.10;55.10;;;;;;4957334;28;20202;-77
2023/08/11 00:12:26;;;;;;;2.70;2.50;;;22.10;55.20;;;;;;4941132;29;20234;-77
2023/08/11 00:14:55;;;;;;;2.70;2.50;;;22.20;55.30;;;;;;4957450;29;20199;-77
2023/08/11 00:17:22;;;;;;;2.90;2.58;;;22.10;55.60;;;;;;4940974;29;20709;-77
2023/08/11 00:19:49;;;;;;;2.55;2.35;;;22.10;55.30;;;;;;4940904;29;20573;-76
2023/08/11 00:22:17;;;;;;;2.72;2.53;;;22.10;55.30;;;;;;4956991;28;20218;-76
2023/08/11 00:24:44;;;;;;;2.92;2.70;;;22.10;55.30;;;;;;4957160;29;20214;-76
2023/08/11 00:27:11;;;;;;;2.50;2.30;;;22.10;55.40;;;;;;5130982;23;20228;-79
2023/08/11 00:29:38;;;;;;;2.55;2.35;;;22.10;55.40;;;;;;5036625;28;20263;-79
2023/08/11 00:32:07;;;;;;;2.85;2.58;;;22.00;55.30;;;;;;5018913;28;20220;-78
2023/08/11 00:34:34;;;;;;;2.85;2.58;;;22.00;55.40;;;;;;5018787;28;20634;-78
2023/08/11 00:37:02;;;;;;;3.00;2.70;;;22.00;55.40;;;;;;5019710;28;20196;-78
2023/08/11 00:39:30;;;;;;;2.80;2.60;;;22.00;55.40;;;;;;5003001;28;20231;-78
2023/08/11 00:41:57;;;;;;;2.60;2.40;;;22.00;55.40;;;;;;5036578;28;20706;-78
2023/08/11 00:44:24;;;;;;;2.53;2.33;;;22.00;55.40;;;;;;5018561;28;20231;-78
2023/08/11 00:46:51;;;;;;;2.80;2.60;;;22.00;55.50;;;;;;5018704;28;20227;-78
2023/08/11 00:49:19;;;;;;;3.20;2.70;;;22.00;55.50;;;;;;5018387;28;20222;-78
2023/08/11 00:51:46;;;;;;;3.80;2.67;;;22.00;55.40;;;;;;5018388;28;20211;-78
2023/08/11 00:54:14;;;;;;;2.58;2.38;;;22.00;55.40;;;;;;5018580;28;20333;-78
2023/08/11 00:56:44;;;;;;;3.00;2.60;;;22.00;55.40;;;;;;5018221;28;20613;-78
2023/08/11 00:59:12;;;;;;;2.83;2.55;;;22.00;55.40;;;;;;5018319;28;20295;-78
2023/08/11 01:01:40;;;;;;;3.10;2.60;;;21.90;55.30;;;;;;5018409;28;20224;-78
2023/08/11 01:04:07;;;;;;;2.70;2.50;;;21.90;55.30;;;;;;5017332;28;20200;-78
2023/08/11 01:06:39;;;;;;;2.85;2.20;;;21.90;55.20;;;;;;5019797;28;20246;-78
2023/08/11 01:09:09;;;;;;;2.70;2.50;;;21.90;55.30;;;;;;5018804;28;20204;-78
2023/08/11 01:11:40;;;;;;;2.88;2.60;;;21.90;55.30;;;;;;5002821;28;20212;-78
2023/08/11 01:14:22;;;;;;;3.03;2.72;;;21.90;55.30;;;;;;5018788;28;20274;-78
2023/08/11 01:16:50;;;;;;;3.17;2.63;;;21.90;55.30;;;;;;5018234;28;20192;-78
2023/08/11 01:19:21;;;;;;;2.55;2.35;;;21.90;55.30;;;;;;5017845;28;20196;-78
2023/08/11 01:21:49;;;;;;;2.70;2.50;;;21.90;55.30;;;;;;5018123;28;20226;-78
2023/08/11 01:24:19;;;;;;;2.78;2.50;;;21.90;55.30;;;;;;5018166;28;20192;-78
2023/08/11 01:26:46;;;;;;;2.75;2.55;;;21.90;55.30;;;;;;5017694;28;20204;-80
2023/08/11 01:29:14;;;;;;;2.83;2.63;;;21.90;55.30;;;;;;5017750;28;20188;-79
2023/08/11 01:31:41;;;;;;;2.70;2.50;;;21.90;55.30;;;;;;5001296;28;20220;-79
2023/08/11 01:34:09;;;;;;;2.90;2.63;;;21.80;55.20;;;;;;5018755;28;20251;-79
2023/08/11 01:36:36;;;;;;;3.35;2.78;;;21.80;55.20;;;;;;5017639;28;20295;-79
2023/08/11 01:39:04;;;;;;;2.95;2.65;;;21.80;55.20;;;;;;5017676;28;20196;-79
2023/08/11 01:41:33;;;;;;;2.60;2.40;;;21.80;55.30;;;;;;5017921;28;20224;-79
2023/08/11 01:44:00;;;;;;;2.50;2.30;;;21.80;55.30;;;;;;5017859;28;20246;-78
2023/08/11 01:46:27;;;;;;;2.72;2.53;;;21.80;55.20;;;;;;5001472;28;20724;-78
2023/08/11 01:48:55;;;;;;;3.28;2.50;;;21.80;55.30;;;;;;5017616;28;20709;-78
2023/08/11 01:51:22;;;;;;;3.13;2.90;;;21.80;55.30;;;;;;5017932;28;20216;-78
2023/08/11 01:53:50;;;;;;;2.65;2.45;;;21.70;55.30;;;;;;5001599;28;20691;-78
2023/08/11 01:56:17;;;;;;;2.58;2.38;;;21.70;55.30;;;;;;5017393;28;20196;-78
2023/08/11 01:58:46;;;;;;;2.97;2.70;;;21.70;55.30;;;;;;5017025;28;20208;-78
2023/08/11 02:01:13;;;;;;;2.65;2.40;;;21.70;55.30;;;;;;5017449;28;20212;-78
2023/08/11 02:03:41;;;;;;;2.92;2.55;;;21.70;55.30;;;;;;5001064;28;20200;-78
2023/08/11 02:06:08;;;;;;;2.50;2.30;;;21.70;55.30;;;;;;5018226;28;20269;-78
2023/08/11 02:08:35;;;;;;;2.92;2.33;;;21.70;55.30;;;;;;5017181;28;20204;-78
2023/08/11 02:11:03;;;;;;;2.80;2.60;;;21.70;55.20;;;;;;5017240;28;20212;-78
2023/08/11 02:13:30;;;;;;;2.78;2.58;;;21.70;55.30;;;;;;5016936;28;20625;-78
2023/08/11 02:16:03;;;;;;;3.45;2.53;;;21.70;55.30;;;;;;5017298;28;20200;-78
2023/08/11 02:18:31;;;;;;;3.38;2.70;;;21.70;55.90;;;;;;5017309;28;20208;-78
2023/08/11 02:20:58;;;;;;;3.00;2.42;;;21.70;55.30;;;;;;5016796;28;20220;-78
2023/08/11 02:23:25;;;;;;;2.63;2.42;;;21.70;55.40;;;;;;5016643;28;20198;-78
2023/08/11 02:25:52;;;;;;;2.80;2.60;;;21.60;55.20;;;;;;5016643;28;20200;-78
2023/08/11 02:28:19;;;;;;;2.95;2.67;;;21.70;55.40;;;;;;5017428;28;20200;-78
2023/08/11 02:30:47;;;;;;;3.17;2.88;;;21.60;55.30;;;;;;5016763;28;20274;-78
2023/08/11 02:33:18;;;;;;;2.60;2.40;;;21.60;55.30;;;;;;5016781;28;20216;-78
2023/08/11 02:35:45;;;;;;;2.50;2.30;;;21.60;55.30;;;;;;5016823;28;20206;-78
2023/08/11 02:38:13;;;;;;;2.97;2.40;;;21.60;55.30;;;;;;5016599;28;20571;-78
2023/08/11 02:40:41;;;;;;;2.92;2.58;;;21.60;55.40;;;;;;5016688;28;20306;-78
2023/08/11 02:43:09;;;;;;;2.67;2.47;;;21.60;55.40;;;;;;5016956;28;20555;-78
2023/08/11 02:45:36;;;;;;;3.10;2.80;;;21.60;55.40;;;;;;5016534;28;20206;-78
2023/08/11 02:48:04;;;;;;;2.72;2.53;;;21.60;55.40;;;;;;5016370;28;20291;-78
2023/08/11 02:50:33;;;;;;;2.53;2.33;;;21.50;55.40;;;;;;5000518;28;20315;-79
2023/08/11 02:53:00;;;;;;;3.05;2.50;;;21.50;55.40;;;;;;5001241;28;20218;-79
2023/08/11 02:55:27;;;;;;;2.90;2.60;;;21.60;55.60;;;;;;5017267;28;20196;-79
2023/08/11 02:57:54;;;;;;;2.80;2.53;;;21.50;55.40;;;;;;5016837;28;20199;-79
2023/08/11 03:00:22;;;;;;;2.80;2.60;;;21.50;55.50;;;;;;5017195;28;20301;-79
2023/08/11 03:02:48;;;;;;;2.40;2.20;;;21.50;55.50;;;;;;5034554;28;20204;-79
2023/08/11 03:05:16;;;;;;;2.70;2.50;;;21.50;55.60;;;;;;5017026;28;20204;-79
2023/08/11 03:07:46;;;;;;;2.50;2.30;;;21.50;55.60;;;;;;5016645;28;20643;-79
2023/08/11 03:10:13;;;;;;;2.97;2.60;;;21.50;55.50;;;;;;5016676;28;20212;-79
2023/08/11 03:12:42;;;;;;;2.92;2.58;;;21.50;55.60;;;;;;5016645;28;20196;-79
2023/08/11 03:15:10;;;;;;;3.13;2.50;;;21.50;55.60;;;;;;5017324;28;20204;-79
2023/08/11 03:17:38;;;;;;;3.88;2.60;;;21.50;55.70;;;;;;5020705;28;20200;-79
2023/08/11 03:20:12;;;;;;;2.65;2.45;;;21.50;55.60;;;;;;5016163;28;20292;-79
2023/08/11 03:22:39;;;;;;;2.60;2.40;;;21.50;55.40;;;;;;5016949;28;20192;-79
2023/08/11 03:25:10;;;;;;;2.80;2.60;;;21.60;56.00;;;;;;5016455;28;20230;-79
2023/08/11 03:27:39;;;;;;;2.67;2.40;;;21.70;55.20;;;;;;5017530;28;20287;-78
2023/08/11 03:30:09;;;;;;;2.75;2.53;;;21.70;55.10;;;;;;5020004;28;20215;-78
2023/08/11 03:32:38;;;;;;;3.15;2.85;;;21.70;54.90;;;;;;5005413;28;20227;-78
2023/08/11 03:35:07;;;;;;;2.40;2.20;;;21.80;54.80;;;;;;5004088;28;20695;-78
2023/08/11 03:37:34;;;;;;;3.03;2.72;;;21.90;54.70;;;;;;5021865;28;20550;-78
2023/08/11 03:40:04;;;;;;;2.60;2.40;;;21.90;54.50;;;;;;5003736;28;20204;-78
2023/08/11 03:42:32;;;;;;;2.78;2.53;;;22.00;54.60;;;;;;5019865;28;20212;-78
2023/08/11 03:45:00;;;;;;;2.72;2.53;;;22.00;54.50;;;;;;5019907;28;20250;-78
2023/08/11 03:47:28;;;;;;;3.05;2.40;;;22.00;54.30;;;;;;5020113;28;20664;-78
2023/08/11 03:49:55;;;;;;;2.50;2.30;;;22.00;54.30;;;;;;5003834;28;20200;-78
2023/08/11 03:52:21;;;;;;;2.75;2.40;;;22.00;54.30;;;;;;5019599;28;20279;-80
2023/08/11 03:54:50;;;;;;;3.58;2.65;;;22.10;54.20;;;;;;5019453;28;20607;-79
2023/08/11 03:57:18;;;;;;;2.70;2.50;;;22.10;54.10;;;;;;5003772;28;20222;-79
2023/08/11 03:59:47;;;;;;;3.20;2.53;;;22.00;54.00;;;;;;5003161;28;20200;-79
2023/08/11 04:02:14;;;;;;;3.03;2.60;;;22.10;54.10;;;;;;5037103;28;20236;-79
2023/08/11 04:04:41;;;;;;;3.45;2.70;;;22.10;54.10;;;;;;5019477;28;20192;-79
2023/08/11 04:07:08;;;;;;;2.72;2.53;;;22.10;53.90;;;;;;5019506;28;20207;-79
2023/08/11 04:09:39;;;;;;;2.80;2.60;;;22.10;53.80;;;;;;5020192;28;20212;-78
2023/08/11 04:12:07;;;;;;;3.38;2.80;;;22.20;53.90;;;;;;5019134;28;20224;-78
2023/08/11 04:14:34;;;;;;;2.70;2.50;;;22.20;53.80;;;;;;5003150;28;20220;-78
2023/08/11 04:17:03;;;;;;;2.88;2.53;;;22.20;53.70;;;;;;5018920;28;20206;-78
2023/08/11 04:19:31;;;;;;;3.05;2.72;;;22.20;53.70;;;;;;5019143;28;20192;-78
2023/08/11 04:22:00;;;;;;;2.80;2.60;;;22.20;53.60;;;;;;5018748;28;20270;-78
2023/08/11 04:24:26;;;;;;;2.58;2.38;;;22.20;53.60;;;;;;5019138;28;20199;-78
2023/08/11 04:26:53;;;;;;;2.75;2.55;;;22.20;53.70;;;;;;5018975;28;20291;-78
2023/08/11 04:29:21;;;;;;;2.58;2.38;;;22.20;54.30;;;;;;5019042;28;20253;-78
2023/08/11 04:31:49;;;;;;;2.70;2.50;;;22.10;53.60;;;;;;5019072;28;20291;-78
2023/08/11 04:34:19;;;;;;;2.40;2.20;;;22.10;53.60;;;;;;5018838;28;20695;-78
2023/08/11 04:36:47;;;;;;;2.70;2.50;;;22.10;53.80;;;;;;5002746;28;20691;-78
2023/08/11 04:39:14;;;;;;;3.00;2.70;;;22.00;53.80;;;;;;5018632;28;20243;-78
2023/08/11 04:41:42;;;;;;;2.58;2.35;;;22.00;53.80;;;;;;5018768;28;20631;-78
2023/08/11 04:44:09;;;;;;;2.53;2.33;;;22.00;53.90;;;;;;5018859;28;20192;-78
2023/08/11 04:46:36;;;;;;;2.70;2.50;;;22.00;53.90;;;;;;5018874;28;20214;-78
2023/08/11 04:49:03;;;;;;;2.50;2.30;;;22.00;53.90;;;;;;5002177;28;20203;-77
2023/08/11 04:51:33;;;;;;;2.65;2.45;;;22.00;53.90;;;;;;5018544;28;20243;-77
2023/08/11 04:54:02;;;;;;;2.75;2.53;;;22.00;54.00;;;;;;5019164;28;20294;-77
2023/08/11 04:56:29;;;;;;;2.50;2.30;;;21.90;53.90;;;;;;5002598;28;20562;-77
2023/08/11 04:58:57;;;;;;;2.70;2.50;;;22.00;54.10;;;;;;5018757;28;20568;-77
2023/08/11 05:01:24;;;;;;;3.38;2.30;;;22.00;54.00;;;;;;5018236;28;20220;-77
2023/08/11 05:03:51;;;;;;;4.22;2.70;;;22.00;54.00;;;;;;5018624;28;20665;-77
2023/08/11 05:06:18;;;;;;;3.13;2.60;;;21.90;53.90;;;;;;5018607;28;20651;-77
2023/08/11 05:08:47;;;;;;;2.70;2.50;;;22.00;53.90;;;;;;5001822;28;20246;-78
2023/08/11 05:11:14;;;;;;;2.75;2.55;;;22.00;53.90;;;;;;5017898;28;20311;-77
2023/08/11 05:13:42;;;;;;;2.47;2.28;;;22.00;53.90;;;;;;5018528;28;20274;-77
2023/08/11 05:16:10;;;;;;;2.90;2.70;;;22.10;53.70;;;;;;5001996;28;20200;-77
2023/08/11 05:18:37;;;;;;;4.13;2.40;;;22.20;53.40;;;;;;5017613;28;20200;-77
2023/08/11 05:21:05;;;;;;;3.10;2.72;;;22.40;53.20;;;;;;5001495;28;20216;-78
2023/08/11 05:23:33;;;;;;;2.80;2.45;;;22.50;52.70;;;;;;5017756;28;20327;-78
2023/08/11 05:26:02;;;;;;;2.70;2.40;;;22.70;52.40;;;;;;5018243;28;20200;-78
2023/08/11 05:28:29;;;;;;;3.55;2.80;;;22.90;52.00;;;;;;5018154;28;20204;-78
2023/08/11 05:30:56;;;;;;;3.20;2.60;;;23.00;51.70;;;;;;5018051;28;20224;-78
2023/08/11 05:33:24;;;;;;;2.85;2.50;;;23.10;51.50;;;;;;5017943;28;20204;-77
2023/08/11 05:36:10;;;;;;;2.75;2.53;;;23.20;51.20;;;;;;5035637;28;20187;-77
2023/08/11 05:38:37;;;;;;;2.63;2.42;;;23.30;50.90;;;;;;5019847;28;20273;-77
2023/08/11 05:41:06;;;;;;;2.67;2.47;;;23.50;50.80;;;;;;5022724;28;20310;-77
2023/08/11 05:43:33;;;;;;;3.33;2.33;;;23.60;50.50;;;;;;5023495;28;20204;-78
2023/08/11 05:46:00;;;;;;;2.55;2.35;;;23.70;50.40;;;;;;5025175;28;20626;-78
2023/08/11 05:48:26;;;;;;;2.58;2.22;;;23.80;50.20;;;;;;5023791;28;20555;-78
2023/08/11 05:50:53;;;;;;;2.70;2.50;;;23.80;49.90;;;;;;5022223;28;20297;-78
2023/08/11 05:53:21;;;;;;;2.92;2.60;;;23.90;49.80;;;;;;5021250;28;20261;-78
2023/08/11 05:55:48;;;;;;;2.92;2.72;;;24.00;49.60;;;;;;5005329;28;20684;-78
2023/08/11 05:58:17;;;;;;;2.70;2.50;;;24.10;49.50;;;;;;5020919;28;20203;-78
2023/08/11 06:00:44;;;;;;;3.83;2.70;;;24.10;49.40;;;;;;5019546;28;20220;-79
2023/08/11 06:03:11;;;;;;;2.70;2.50;;;24.20;49.20;;;;;;5019080;28;20633;-79
2023/08/11 06:05:38;;;;;;;2.65;2.45;;;24.30;49.20;;;;;;5018521;28;20196;-79
2023/08/11 06:08:05;;;;;;;2.70;2.50;;;24.30;49.20;;;;;;5017574;28;20192;-79
2023/08/11 06:10:33;;;;;;;2.72;2.53;;;24.40;49.20;;;;;;5017821;28;20252;-79
2023/08/11 06:12:59;;;;;;;2.53;2.33;;;24.50;49.20;;;;;;5017530;28;20199;-79
2023/08/11 06:15:30;;;;;;;2.88;2.53;;;24.50;48.90;;;;;;5034735;28;20203;-79
2023/08/11 06:17:57;;;;;;;3.97;2.85;;;24.60;48.80;;;;;;5017505;28;20601;-79
2023/08/11 06:20:24;;;;;;;3.05;2.70;;;24.70;48.70;;;;;;5017751;28;20639;-79
2023/08/11 06:22:51;;;;;;;2.83;2.60;;;24.70;48.60;;;;;;5017069;28;20543;-79
2023/08/11 06:25:18;;;;;;;2.90;2.70;;;24.80;48.50;;;;;;5000674;28;20671;-79
2023/08/11 06:27:45;;;;;;;2.50;2.30;;;24.90;48.40;;;;;;5017018;28;20227;-79
2023/08/11 06:30:13;;;;;;;2.60;2.40;;;24.90;48.20;;;;;;5018780;28;20223;-79
2023/08/11 06:32:42;;;;;;;3.17;2.80;;;25.00;48.10;;;;;;5001203;28;20283;-79
2023/08/11 06:35:11;;;;;;;3.70;2.50;;;25.00;48.00;;;;;;5018033;28;20262;-79
2023/08/11 06:37:38;;;;;;;3.13;2.67;;;25.10;47.80;;;;;;5017307;28;20223;-79
2023/08/11 06:40:06;;;;;;;2.70;2.50;;;25.20;47.80;;;;;;5017712;28;20245;-79
2023/08/11 06:42:34;;;;;;;3.08;2.50;;;25.30;47.70;;;;;;5000881;28;20200;-79
2023/08/11 06:45:08;;;;;;;2.58;2.38;;;25.30;47.50;;;;;;5017971;28;20273;-79
2023/08/11 06:47:36;;;;;;;2.60;2.40;;;25.40;47.40;;;;;;5000555;28;20204;-79
2023/08/11 06:50:04;;;;;;;2.72;2.53;;;25.40;47.20;;;;;;5000402;28;20236;-79
2023/08/11 06:52:31;;;;;;;2.60;2.40;;;25.50;47.10;;;;;;5017876;28;20195;-79
2023/08/11 06:54:59;;;;;;;3.00;2.70;;;25.50;46.90;;;;;;5016706;28;20228;-79
2023/08/11 06:57:25;;;;;;;3.38;2.30;;;25.60;46.90;;;;;;5016867;28;20196;-79
2023/08/11 06:59:53;;;;;;;2.70;2.50;;;25.60;46.70;;;;;;5016692;28;20546;-79
2023/08/11 07:02:20;;;;;;;2.83;2.50;;;25.70;46.70;;;;;;5020311;28;20199;-79
2023/08/11 07:04:47;;;;;;;2.53;2.30;;;25.80;46.60;;;;;;5020716;28;20196;-79
2023/08/11 07:07:15;;;;;;;2.60;2.40;;;25.80;46.40;;;;;;5020982;28;20199;-79
2023/08/11 07:09:43;;;;;;;2.58;2.33;;;25.90;46.40;;;;;;5020096;28;20210;-79
2023/08/11 07:12:09;;;;;;;2.72;2.42;;;25.90;46.30;;;;;;5021306;28;20254;-79
2023/08/11 07:14:37;;;;;;;2.60;2.40;;;25.90;46.20;;;;;;5020641;28;20212;-79
2023/08/11 07:17:04;;;;;;;2.50;2.30;;;26.00;46.10;;;;;;5020636;28;20602;-79
2023/08/11 07:19:31;;;;;;;2.72;2.53;;;26.10;46.10;;;;;;5020359;28;20294;-79
2023/08/11 07:21:58;;;;;;;2.67;2.45;;;26.10;45.90;;;;;;5020791;28;20211;-79
2023/08/11 07:24:27;;;;;;;2.60;2.40;;;26.20;46.00;;;;;;5004255;28;20278;-79
2023/08/11 07:26:54;;;;;;;2.60;2.40;;;26.20;45.80;;;;;;5020406;28;20214;-79
2023/08/11 07:29:21;;;;;;;2.47;2.28;;;26.20;45.70;;;;;;5020348;28;20203;-79
2023/08/11 07:31:48;;;;;;;2.40;2.20;;;26.30;45.70;;;;;;5020598;28;20221;-78
2023/08/11 07:34:15;;;;;;;2.72;2.53;;;26.30;45.70;;;;;;5021860;28;20195;-78
2023/08/11 07:36:43;;;;;;;2.85;2.55;;;26.30;45.50;;;;;;5040526;28;20191;-77
2023/08/11 07:39:10;;;;;;;2.60;2.40;;;26.40;45.50;;;;;;5006028;28;20297;-77
2023/08/11 07:41:39;;;;;;;2.65;2.45;;;26.40;45.30;;;;;;5039981;28;20690;-78
2023/08/11 07:44:06;;;;;;;2.75;2.55;;;26.50;45.30;;;;;;5021574;28;20195;-78
2023/08/11 07:46:33;;;;;;;2.47;2.28;;;26.50;45.20;;;;;;5021813;28;20745;-78
2023/08/11 07:49:00;;;;;;;2.60;2.40;;;26.50;45.10;;;;;;5022135;28;20214;-79
2023/08/11 07:51:27;;;;;;;2.72;2.53;;;26.60;45.10;;;;;;5005630;28;20226;-79
2023/08/11 07:53:54;;;;;;;2.63;2.42;;;26.60;45.00;;;;;;5039196;28;20188;-79
2023/08/11 07:56:21;;;;;;;2.38;2.17;;;26.60;45.00;;;;;;5039552;28;20212;-79
2023/08/11 07:58:50;;;;;;;3.35;2.40;;;26.60;45.00;;;;;;5021996;28;20566;-79
2023/08/11 08:01:18;;;;;;;2.38;2.17;;;26.60;44.80;;;;;;5019693;28;20277;-79
2023/08/11 08:03:45;;;;;;;2.60;2.40;;;26.70;44.80;;;;;;5019895;28;20204;-79
2023/08/11 08:06:13;;;;;;;2.30;2.10;;;26.70;44.80;;;;;;5019377;28;20650;-79
2023/08/11 08:08:40;;;;;;;2.70;2.50;;;26.80;44.80;;;;;;5019497;28;20207;-79
2023/08/11 08:11:07;;;;;;;2.50;2.30;;;26.80;44.80;;;;;;5019363;28;20246;-79
2023/08/11 08:13:34;;;;;;;2.60;2.40;;;26.80;45.30;;;;;;5019021;28;20199;-79
2023/08/11 08:16:02;;;;;;;2.40;2.20;;;26.80;44.60;;;;;;5019497;28;20233;-79
2023/08/11 08:18:29;;;;;;;2.33;2.13;;;26.90;44.60;;;;;;5019696;28;20234;-79
2023/08/11 08:20:56;;;;;;;2.72;2.40;;;26.90;44.50;;;;;;5019733;28;20647;-79
2023/08/11 08:23:23;;;;;;;2.22;2.03;;;26.90;44.40;;;;;;5020019;28;20202;-79
2023/08/11 08:25:50;;;;;;;2.65;2.42;;;26.90;44.40;;;;;;5019635;28;20265;-79
2023/08/11 08:28:17;;;;;;;2.47;2.28;;;27.00;44.40;;;;;;5003592;28;20245;-79
2023/08/11 08:30:44;;;;;;;2.35;2.17;;;27.00;44.40;;;;;;5003903;28;20693;-79
2023/08/11 08:33:13;;;;;;;2.25;2.15;;;27.00;45.00;;;;;;5019857;28;20199;-79
2023/08/11 08:35:40;;;;;;;2.35;2.15;;;27.00;44.30;;;;;;5003787;28;20223;-79
2023/08/11 08:38:07;;;;;;;2.40;2.20;;;27.00;44.30;;;;;;5004397;28;20295;-79
2023/08/11 08:40:35;;;;;;;2.67;2.47;;;27.10;44.20;;;;;;5020257;28;20219;-79
2023/08/11 08:43:03;;;;;;;2.33;2.13;;;27.10;44.20;;;;;;5019735;28;20211;-79
2023/08/11 08:45:30;;;;;;;2.10;1.90;;;27.10;44.20;;;;;;5019701;28;20195;-79
2023/08/11 08:47:58;;;;;;;2.30;2.10;;;27.10;44.20;;;;;;5019356;28;20650;-79
2023/08/11 08:50:26;;;;;;;2.53;2.33;;;27.20;44.20;;;;;;5019618;28;20211;-79
2023/08/11 08:52:53;;;;;;;2.63;2.30;;;27.20;44.10;;;;;;5019125;28;20261;-79
2023/08/11 08:55:20;;;;;;;2.45;2.25;;;27.20;44.00;;;;;;5019554;28;20570;-79
2023/08/11 08:57:47;;;;;;;2.72;2.10;;;27.20;44.00;;;;;;5019665;28;20195;-79
2023/08/11 09:00:15;;;;;;;2.45;2.25;;;27.30;44.00;;;;;;5018349;28;20282;-79
2023/08/11 09:02:42;;;;;;;2.47;2.28;;;27.30;44.00;;;;;;5035958;28;20199;-79
2023/08/11 09:05:09;;;;;;;2.10;2.00;;;27.30;43.90;;;;;;4986404;28;20695;-79
2023/08/11 09:07:38;;;;;;;2.40;2.20;;;27.30;43.80;;;;;;5018859;28;20199;-79
2023/08/11 09:10:07;;;;;;;2.45;2.05;;;27.40;43.80;;;;;;5018367;28;20200;-79
2023/08/11 09:12:34;;;;;;;2.38;2.17;;;27.40;43.90;;;;;;5018973;28;20272;-79
2023/08/11 09:15:07;;;;;;;2.30;2.10;;;27.40;43.80;;;;;;5018648;28;20219;-79
2023/08/11 09:17:36;;;;;;;2.30;2.10;;;27.40;43.70;;;;;;5018170;28;20206;-79
2023/08/11 09:20:04;;;;;;;2.58;2.20;;;27.40;43.70;;;;;;5003146;28;20202;-79
2023/08/11 09:22:32;;;;;;;2.60;2.40;;;27.50;43.70;;;;;;5018625;28;20210;-79
2023/08/11 09:25:01;;;;;;;2.40;2.20;;;27.50;43.60;;;;;;5017541;28;20738;-79
2023/08/11 09:27:30;;;;;;;2.00;1.90;;;27.50;43.60;;;;;;5018049;28;20203;-79
2023/08/11 09:29:57;;;;;;;2.50;2.30;;;27.50;43.60;;;;;;5017809;28;20195;-79
2023/08/11 09:32:24;;;;;;;2.50;2.30;;;27.50;43.50;;;;;;5018335;28;20234;-79
2023/08/11 09:34:51;;;;;;;2.25;2.15;;;27.60;43.50;;;;;;5017760;28;20203;-79
2023/08/11 09:37:18;;;;;;;2.35;2.15;;;27.50;43.40;;;;;;5018402;28;20288;-79
2023/08/11 09:39:46;;;;;;;2.35;2.15;;;27.50;43.50;;;;;;5017949;28;20676;-79
2023/08/11 09:42:16;;;;;;;2.13;1.98;;;27.60;43.50;;;;;;5019401;28;20310;-79
2023/08/11 09:44:44;;;;;;;1.90;1.80;;;27.60;43.50;;;;;;5003882;28;20202;-79
2023/08/11 09:47:12;;;;;;;2.22;2.03;;;27.60;43.50;;;;;;5036937;28;20552;-79
2023/08/11 09:49:41;;;;;;;2.40;2.20;;;27.60;43.50;;;;;;5019518;28;20195;-79
2023/08/11 09:52:08;;;;;;;2.05;1.95;;;27.60;43.50;;;;;;5018816;28;20211;-79
2023/08/11 09:54:35;;;;;;;2.30;2.10;;;27.60;43.50;;;;;;5019729;28;20198;-79
2023/08/11 09:57:02;;;;;;;2.20;2.00;;;27.60;43.50;;;;;;5018232;28;20279;-79
2023/08/11 09:59:31;;;;;;;2.22;2.03;;;27.60;43.50;;;;;;5017457;28;20210;-79
2023/08/11 10:01:59;;;;;;;2.10;2.00;;;27.60;43.50;;;;;;5017301;28;20320;-79
2023/08/11 10:04:28;;;;;;;2.00;1.90;;;27.60;43.60;;;;;;5017209;28;20230;-79
2023/08/11 10:06:58;;;;;;;2.10;2.00;;;27.60;43.70;;;;;;5017366;28;20565;-79
2023/08/11 10:09:26;;;;;;;2.10;2.00;;;27.60;43.70;;;;;;5017266;28;20265;-79
2023/08/11 10:11:54;;;;;;;2.38;2.20;;;27.60;43.70;;;;;;5001278;28;20608;-79
2023/08/11 10:14:21;;;;;;;2.30;2.10;;;27.60;43.80;;;;;;5017973;28;20290;-79
2023/08/11 10:16:50;;;;;;;2.47;2.28;;;27.50;43.80;;;;;;5017595;28;20587;-79
2023/08/11 10:19:17;;;;;;;2.70;2.20;;;27.50;43.80;;;;;;5035278;28;20629;-79
2023/08/11 10:21:44;;;;;;;2.28;2.08;;;27.50;43.90;;;;;;5017769;28;20241;-79
2023/08/11 10:24:11;;;;;;;2.30;2.10;;;27.50;43.90;;;;;;5018473;28;20199;-79
2023/08/11 10:26:38;;;;;;;2.20;2.10;;;27.50;44.00;;;;;;5017749;28;20203;-79
2023/08/11 10:29:05;;;;;;;2.42;2.22;;;27.40;44.10;;;;;;5018456;28;20199;-79
2023/08/11 10:31:32;;;;;;;2.40;2.20;;;27.40;44.20;;;;;;5035239;28;20218;-79
2023/08/11 10:34:05;;;;;;;2.15;1.98;;;27.40;44.20;;;;;;5017403;28;20269;-79
2023/08/11 10:36:32;;;;;;;2.10;1.90;;;27.30;44.30;;;;;;5016967;28;20211;-79
2023/08/11 10:39:00;;;;;;;2.20;2.10;;;27.30;44.40;;;;;;5017310;28;20552;-79
2023/08/11 10:41:28;;;;;;;2.22;2.03;;;27.30;44.50;;;;;;5017439;28;20694;-79
2023/08/11 10:43:55;;;;;;;2.20;2.00;;;27.30;44.60;;;;;;5017154;28;20195;-79
2023/08/11 10:46:23;;;;;;;2.00;1.90;;;27.20;44.70;;;;;;5017551;28;20194;-79
2023/08/11 10:48:51;;;;;;;2.17;2.08;;;27.20;44.80;;;;;;5017356;28;20223;-79
2023/08/11 10:51:29;;;;;;;2.28;2.15;;;27.20;44.90;;;;;;5017196;28;20227;-79
2023/08/11 10:54:02;;;;;;;2.20;2.00;;;27.20;45.10;;;;;;5001208;28;20230;-79
2023/08/11 10:56:30;;;;;;;2.20;2.00;;;27.10;45.00;;;;;;5017518;28;20207;-79
2023/08/11 10:59:08;;;;;;;2.00;1.90;;;27.10;45.20;;;;;;5017004;28;20559;-79
2023/08/11 11:01:39;;;;;;;2.00;1.90;;;27.10;45.30;;;;;;5017536;28;20245;-79
2023/08/11 11:04:07;;;;;;;2.30;2.10;;;27.00;45.30;;;;;;5016941;28;20201;-79
2023/08/11 11:06:37;;;;;;;2.13;2.03;;;27.00;45.50;;;;;;5016843;28;20194;-79
2023/08/11 11:09:04;;;;;;;2.30;2.10;;;26.90;45.50;;;;;;5016628;28;20631;-79
2023/08/11 11:11:31;;;;;;;2.03;1.92;;;26.90;45.60;;;;;;5016600;28;20223;-79
2023/08/11 11:13:59;;;;;;;2.15;2.00;;;26.90;45.70;;;;;;5016816;28;20210;-79
2023/08/11 11:16:27;;;;;;;2.03;1.92;;;26.80;45.80;;;;;;5016357;28;20306;-78
2023/08/11 11:18:54;;;;;;;2.50;2.15;;;26.80;45.90;;;;;;5034224;28;20187;-78
2023/08/11 11:21:21;;;;;;;2.10;2.00;;;26.80;46.00;;;;;;5016642;28;20271;-78
2023/08/11 11:23:50;;;;;;;2.55;2.35;;;26.80;46.10;;;;;;5000515;28;20227;-78
2023/08/11 11:26:21;;;;;;;2.05;1.95;;;26.80;46.20;;;;;;5016843;28;20745;-78
2023/08/11 11:28:48;;;;;;;2.20;2.10;;;26.70;46.20;;;;;;5016477;28;20203;-78
2023/08/11 11:31:16;;;;;;;2.42;2.22;;;26.70;46.20;;;;;;5034151;28;20218;-78
2023/08/11 11:33:43;;;;;;;2.03;1.83;;;26.70;46.30;;;;;;5016427;28;20207;-78
2023/08/11 11:36:10;;;;;;;2.10;2.00;;;26.70;46.30;;;;;;5016698;28;20222;-78
2023/08/11 11:38:37;;;;;;;2.35;2.15;;;26.60;46.30;;;;;;5016130;28;20257;-78
2023/08/11 11:41:09;;;;;;;2.00;1.85;;;26.70;46.50;;;;;;5016227;28;20223;-78
2023/08/11 11:43:36;;;;;;;2.08;1.92;;;26.60;46.50;;;;;;5017513;28;20199;-78
2023/08/11 11:46:04;;;;;;;2.20;2.00;;;26.60;46.70;;;;;;5023000;28;20200;-79
2023/08/11 11:48:30;;;;;;;2.60;2.40;;;26.50;47.00;;;;;;5020057;28;20210;-79
2023/08/11 11:50:57;;;;;;;3.00;2.75;;;26.50;47.40;;;;;;5021322;28;20277;-79
2023/08/11 11:53:25;;;;;;;4.28;2.90;;;26.60;48.30;;;;;;5020780;28;20200;-79
2023/08/11 11:55:52;;;;;;;4.18;2.47;;;26.60;48.40;;;;;;5020397;28;20281;-79
2023/08/11 11:58:21;;;;;;;3.20;2.83;;;26.60;48.70;;;;;;5020092;28;20202;-79
2023/08/11 12:00:48;;;;;;;3.40;3.10;;;26.60;48.80;;;;;;5019769;28;20215;-79
2023/08/11 12:03:15;;;;;;;3.50;3.13;;;26.60;48.90;;;;;;5019724;28;20572;-79
2023/08/11 12:05:42;;;;;;;3.35;3.05;;;26.70;48.90;;;;;;5037225;28;20223;-79
2023/08/11 12:08:20;;;;;;;4.18;2.90;;;26.70;48.90;;;;;;5020650;28;20210;-79
2023/08/11 12:10:48;;;;;;;3.33;3.03;;;26.80;49.10;;;;;;5021140;28;20226;-79
2023/08/11 12:13:15;;;;;;;4.15;3.10;;;26.80;49.00;;;;;;5021108;28;20231;-79
2023/08/11 12:15:47;;;;;;;3.55;3.25;;;26.90;48.80;;;;;;5003577;28;20208;-79
2023/08/11 12:18:14;;;;;;;3.30;3.00;;;26.80;48.70;;;;;;5020690;28;20200;-79
2023/08/11 12:20:41;;;;;;;3.28;2.97;;;26.90;48.80;;;;;;5003679;28;20219;-79
2023/08/11 12:23:08;;;;;;;3.97;3.00;;;26.90;49.00;;;;;;5019922;28;20253;-79
2023/08/11 12:25:35;;;;;;;3.17;2.90;;;26.90;49.10;;;;;;5032189;22;20235;-77
2023/08/11 12:28:04;;;;;;;3.35;3.05;;;26.90;49.20;;;;;;4985020;28;20537;-77
2023/08/11 12:30:31;;;;;;;3.25;2.95;;;26.90;49.40;;;;;;5016995;28;20208;-77
2023/08/11 12:33:00;;;;;;;3.20;2.90;;;27.00;49.50;;;;;;4999457;28;20208;-78
2023/08/11 12:35:27;;;;;;;4.15;3.00;;;27.00;49.50;;;;;;5000108;28;20602;-77
2023/08/11 12:37:54;;;;;;;2.97;2.78;;;27.00;49.40;;;;;;4999298;28;20227;-77
2023/08/11 12:40:24;;;;;;;3.28;3.08;;;27.00;49.30;;;;;;4999005;28;20314;-77
2023/08/11 12:42:52;;;;;;;2.70;2.50;;;26.90;49.20;;;;;;4999341;28;20608;-77
2023/08/11 12:45:19;;;;;;;3.13;2.50;;;26.90;49.10;;;;;;4999852;28;20196;-77
2023/08/11 12:47:47;;;;;;;2.78;2.58;;;26.90;49.10;;;;;;4999188;28;20224;-77
2023/08/11 12:50:15;;;;;;;2.92;2.70;;;26.90;49.10;;;;;;4999621;28;20231;-77